Time;durP1;ratioP1;P1;durP2;ratioP2;P2;SDS_P1;SDS_P2;PMS_P1;PMS_P2;Temp;Humidity;BMP_temperature;BMP_pressure;BME280_temperature;BME280_humidity;BME280_pressure;Samples;Min_cycle;Max_cycle;Signal;HPM_P1;HPM_P2
2022/09/28 00:02:00;;;;;;;30.52;4.75;;;14.80;99.90;;;;;;5076066;28;20029;-76
2022/09/28 00:04:26;;;;;;;24.90;5.40;;;14.80;99.90;;;;;;5076057;28;20518;-77
2022/09/28 00:06:52;;;;;;;21.63;4.68;;;14.80;99.90;;;;;;5077472;28;20021;-75
2022/09/28 00:09:17;;;;;;;19.88;5.60;;;14.80;99.90;;;;;;5077324;28;20362;-76
2022/09/28 00:11:44;;;;;;;19.52;4.28;;;14.90;99.90;;;;;;5077417;28;20021;-76
2022/09/28 00:14:11;;;;;;;19.50;5.30;;;14.90;99.90;;;;;;5077031;28;20032;-77
2022/09/28 00:16:39;;;;;;;22.50;5.28;;;14.90;99.90;;;;;;5076846;28;20404;-76
2022/09/28 00:19:05;;;;;;;24.10;5.78;;;15.00;99.90;;;;;;5077130;28;20037;-77
2022/09/28 00:21:35;;;;;;;21.30;3.58;;;15.00;99.90;;;;;;5077068;28;20396;-76
2022/09/28 00:24:12;;;;;;;14.32;4.18;;;15.00;99.90;;;;;;5077381;28;20028;-75
2022/09/28 00:26:53;;;;;;;27.70;5.10;;;15.00;99.90;;;;;;5072323;28;20032;-75
2022/09/28 00:29:28;;;;;;;26.90;4.22;;;15.00;99.90;;;;;;5076884;28;20067;-76
2022/09/28 00:31:58;;;;;;;17.25;4.20;;;15.10;99.90;;;;;;5077201;28;20023;-75
2022/09/28 00:34:32;;;;;;;16.67;3.90;;;15.10;99.90;;;;;;5077436;28;20021;-76
2022/09/28 00:36:58;;;;;;;27.80;4.88;;;15.20;99.90;;;;;;5077006;28;20080;-75
2022/09/28 00:39:26;;;;;;;15.65;4.35;;;15.10;99.90;;;;;;5076942;28;20045;-76
2022/09/28 00:41:53;;;;;;;24.63;4.88;;;15.20;99.90;;;;;;5077405;28;20040;-76
2022/09/28 00:44:24;;;;;;;13.90;4.25;;;15.20;99.90;;;;;;5075367;28;20027;-77
2022/09/28 00:46:57;;;;;;;24.83;3.53;;;15.20;99.90;;;;;;5076858;28;20017;-76
2022/09/28 00:50:07;;;;;;;13.52;4.85;;;15.10;99.90;;;;;;5075494;28;20021;-77
2022/09/28 00:52:39;;;;;;;11.65;2.92;;;15.10;99.90;;;;;;5066040;28;20044;-75
2022/09/28 00:55:10;;;;;;;9.63;2.92;;;15.00;99.90;;;;;;5076956;28;20495;-75
2022/09/28 00:57:41;;;;;;;10.55;3.75;;;15.10;99.90;;;;;;5075537;28;20035;-76
2022/09/28 01:00:07;;;;;;;14.68;2.90;;;15.10;99.90;;;;;;5075267;28;20476;-75
2022/09/28 01:02:34;;;;;;;11.50;3.78;;;15.10;99.90;;;;;;5075369;28;20562;-76
2022/09/28 01:05:02;;;;;;;17.83;3.25;;;15.10;99.90;;;;;;5076906;28;20078;-76
2022/09/28 01:07:28;;;;;;;16.60;3.60;;;15.20;99.90;;;;;;5075453;28;20396;-76
2022/09/28 01:09:55;;;;;;;11.52;2.40;;;15.20;99.90;;;;;;5075454;28;20025;-73
2022/09/28 01:12:20;;;;;;;18.38;3.83;;;15.10;99.90;;;;;;5076511;28;20021;-75
2022/09/28 01:14:48;;;;;;;10.75;2.25;;;15.00;99.90;;;;;;5076405;28;20028;-75
2022/09/28 01:17:18;;;;;;;20.98;4.07;;;15.10;99.90;;;;;;5076363;28;20029;-76
2022/09/28 01:20:28;;;;;;;11.15;2.75;;;15.00;99.90;;;;;;5076885;28;20024;-76
2022/09/28 01:23:13;;;;;;;7.82;2.40;;;14.80;99.90;;;;;;5076740;28;20400;-78
2022/09/28 01:25:41;;;;;;;11.50;2.90;;;14.70;99.90;;;;;;5076850;28;20025;-76
2022/09/28 01:28:15;;;;;;;10.57;3.15;;;14.60;99.90;;;;;;5077293;28;20107;-75
2022/09/28 01:30:58;;;;;;;9.85;2.15;;;14.60;99.90;;;;;;5080070;28;20023;-76
2022/09/28 01:33:30;;;;;;;10.30;2.70;;;14.60;99.90;;;;;;5079913;28;20082;-77
2022/09/28 01:36:08;;;;;;;7.80;2.28;;;14.60;99.90;;;;;;5078701;28;20082;-76
2022/09/28 01:38:51;;;;;;;6.13;2.40;;;14.60;99.90;;;;;;5079907;28;20053;-76
2022/09/28 01:41:19;;;;;;;7.63;2.25;;;14.70;99.90;;;;;;5080043;28;20463;-77
2022/09/28 01:43:53;;;;;;;7.20;2.20;;;14.70;99.90;;;;;;5079719;28;20063;-75
2022/09/28 01:46:26;;;;;;;7.43;1.95;;;14.70;99.90;;;;;;5079648;28;20023;-76
2022/09/28 01:49:01;;;;;;;3.90;1.80;;;14.70;99.90;;;;;;5080117;28;20013;-76
2022/09/28 01:51:35;;;;;;;4.35;2.08;;;14.80;99.90;;;;;;5079913;28;20081;-75
2022/09/28 01:54:10;;;;;;;3.17;1.80;;;14.80;99.90;;;;;;5078674;28;20016;-76
2022/09/28 01:56:50;;;;;;;4.55;1.92;;;14.80;99.90;;;;;;5079801;28;20024;-75
2022/09/28 01:59:22;;;;;;;8.52;1.90;;;14.80;99.90;;;;;;5079311;28;20059;-76
2022/09/28 02:01:59;;;;;;;4.10;1.50;;;14.80;99.90;;;;;;5079606;28;20032;-75
2022/09/28 02:04:35;;;;;;;2.40;1.60;;;14.80;99.90;;;;;;5078126;28;20073;-76
2022/09/28 02:07:03;;;;;;;2.58;1.75;;;14.70;99.90;;;;;;5078269;28;20024;-76
2022/09/28 02:09:40;;;;;;;6.93;2.88;;;14.70;99.90;;;;;;5079614;28;20490;-75
2022/09/28 02:12:16;;;;;;;6.85;1.50;;;14.60;99.90;;;;;;5079334;28;20020;-75
2022/09/28 02:14:46;;;;;;;3.20;1.58;;;14.60;99.90;;;;;;5079328;28;20020;-75
2022/09/28 02:17:14;;;;;;;1.92;1.38;;;14.50;99.90;;;;;;5079307;28;20560;-76
2022/09/28 02:19:41;;;;;;;2.33;1.42;;;14.50;99.90;;;;;;5079554;28;20024;-76
2022/09/28 02:22:10;;;;;;;1.85;1.40;;;14.50;99.90;;;;;;5079275;28;20036;-76
2022/09/28 02:24:39;;;;;;;2.28;1.50;;;14.60;99.90;;;;;;5077681;28;20034;-76
2022/09/28 02:27:38;;;;;;;4.90;2.13;;;14.60;99.90;;;;;;5065932;28;20029;-75
2022/09/28 02:30:06;;;;;;;3.20;1.70;;;14.50;99.90;;;;;;5078913;28;20023;-76
2022/09/28 02:32:39;;;;;;;2.28;1.60;;;14.60;99.90;;;;;;5079173;28;20032;-76
2022/09/28 02:35:07;;;;;;;2.90;2.08;;;14.50;99.90;;;;;;5079028;28;20020;-75
2022/09/28 02:37:33;;;;;;;2.88;1.50;;;14.60;99.90;;;;;;5079085;28;20090;-75
2022/09/28 02:39:59;;;;;;;5.78;1.67;;;14.60;99.90;;;;;;5079069;28;20031;-75
2022/09/28 02:42:59;;;;;;;4.10;1.70;;;14.60;99.90;;;;;;5078937;28;20024;-76
2022/09/28 02:45:46;;;;;;;3.90;1.70;;;14.60;99.90;;;;;;5078670;28;20063;-75
2022/09/28 02:48:39;;;;;;;1.92;1.60;;;14.60;99.90;;;;;;5077352;28;20020;-75
2022/09/28 02:51:23;;;;;;;4.70;1.60;;;14.60;99.90;;;;;;5078762;28;20441;-75
2022/09/28 02:54:08;;;;;;;3.45;1.40;;;14.60;99.90;;;;;;5078685;28;20047;-75
2022/09/28 02:56:42;;;;;;;2.13;1.95;;;14.70;99.90;;;;;;5077402;28;20025;-74
2022/09/28 02:59:39;;;;;;;3.50;1.73;;;14.60;99.90;;;;;;5078229;28;20484;-76
2022/09/28 03:02:25;;;;;;;3.75;1.50;;;14.70;99.90;;;;;;5072648;28;20031;-75
2022/09/28 03:05:14;;;;;;;1.40;1.30;;;14.70;99.90;;;;;;5068501;28;20496;-76
2022/09/28 03:08:12;;;;;;;5.25;1.60;;;14.70;99.90;;;;;;5077555;28;20507;-74
2022/09/28 03:10:48;;;;;;;2.25;1.30;;;14.80;99.90;;;;;;5078290;28;20366;-74
2022/09/28 03:13:15;;;;;;;2.33;1.40;;;14.80;99.90;;;;;;5076875;28;20408;-75
2022/09/28 03:15:43;;;;;;;1.60;1.40;;;14.90;99.90;;;;;;5077910;28;20032;-76
2022/09/28 03:18:09;;;;;;;2.65;1.40;;;14.90;99.90;;;;;;5078088;28;20047;-73
2022/09/28 03:20:35;;;;;;;2.42;1.50;;;14.90;99.90;;;;;;5076854;28;20028;-74
2022/09/28 03:23:01;;;;;;;1.95;1.42;;;14.80;99.90;;;;;;5078181;28;20027;-74
2022/09/28 03:25:27;;;;;;;1.70;1.35;;;14.80;99.90;;;;;;5078082;28;20025;-75
2022/09/28 03:27:52;;;;;;;2.28;1.35;;;14.80;99.90;;;;;;5078093;28;20366;-75
2022/09/28 03:30:18;;;;;;;2.25;1.30;;;14.80;99.90;;;;;;5077727;28;20024;-76
2022/09/28 03:32:44;;;;;;;3.15;1.60;;;14.80;99.90;;;;;;5077934;28;20046;-74
2022/09/28 03:35:10;;;;;;;3.15;1.30;;;14.80;99.90;;;;;;5077782;28;20111;-75
2022/09/28 03:37:36;;;;;;;4.15;1.75;;;14.90;99.90;;;;;;5077873;28;20049;-75
2022/09/28 03:40:03;;;;;;;1.75;1.17;;;14.90;99.90;;;;;;5076531;28;20035;-76
2022/09/28 03:42:29;;;;;;;3.53;1.70;;;14.90;99.90;;;;;;5078111;28;20025;-75
2022/09/28 03:44:55;;;;;;;1.25;1.15;;;14.90;99.90;;;;;;5076354;28;20025;-75
2022/09/28 03:47:21;;;;;;;1.67;1.30;;;14.90;99.90;;;;;;5077550;28;20024;-76
2022/09/28 03:49:47;;;;;;;1.30;1.20;;;15.00;99.90;;;;;;5076975;28;20024;-75
2022/09/28 03:52:13;;;;;;;2.30;1.20;;;15.00;99.90;;;;;;5077613;28;20016;-75
2022/09/28 03:54:39;;;;;;;2.83;1.30;;;15.00;99.90;;;;;;5077492;28;20024;-75
2022/09/28 03:57:06;;;;;;;4.20;1.45;;;15.10;99.90;;;;;;5077588;28;20046;-75
2022/09/28 03:59:32;;;;;;;2.33;1.48;;;15.10;99.90;;;;;;5077258;28;20029;-76
2022/09/28 04:01:57;;;;;;;2.75;1.40;;;15.10;99.90;;;;;;5076049;28;20493;-75
2022/09/28 04:04:23;;;;;;;1.90;1.42;;;15.10;99.90;;;;;;5077419;28;20028;-77
2022/09/28 04:06:49;;;;;;;1.40;1.30;;;15.20;99.90;;;;;;5076224;28;20021;-76
2022/09/28 04:09:15;;;;;;;1.55;1.38;;;15.10;99.90;;;;;;5076186;28;20554;-76
2022/09/28 04:11:41;;;;;;;1.60;1.50;;;15.20;99.90;;;;;;5076052;28;20025;-77
2022/09/28 04:14:07;;;;;;;2.20;1.30;;;15.20;99.90;;;;;;5075865;28;20020;-76
2022/09/28 04:16:33;;;;;;;1.42;1.10;;;15.20;99.90;;;;;;5077123;28;20081;-76
2022/09/28 04:18:58;;;;;;;1.38;1.00;;;15.20;99.90;;;;;;5075913;28;20035;-76
2022/09/28 04:21:24;;;;;;;1.35;1.15;;;15.20;99.90;;;;;;5077183;28;20568;-75
2022/09/28 04:23:51;;;;;;;2.45;1.20;;;15.20;99.90;;;;;;5076234;28;20111;-77
2022/09/28 04:26:22;;;;;;;1.60;1.50;;;15.20;99.90;;;;;;5076916;28;20031;-76
2022/09/28 04:31:45;;;;;;;1.40;1.30;;;15.20;99.90;;;;;;5077225;28;19910;-77
2022/09/28 04:34:13;;;;;;;1.40;1.30;;;15.20;99.90;;;;;;5077160;28;20029;-76
2022/09/28 04:36:40;;;;;;;1.70;1.30;;;15.30;99.90;;;;;;5076768;28;20051;-76
2022/09/28 04:39:06;;;;;;;1.25;1.10;;;15.30;99.90;;;;;;5077092;28;20039;-76
2022/09/28 04:41:32;;;;;;;1.73;1.10;;;15.30;99.90;;;;;;5076928;28;20005;-76
2022/09/28 04:43:58;;;;;;;1.30;1.20;;;15.20;99.90;;;;;;5075474;28;20033;-74
2022/09/28 04:46:24;;;;;;;1.60;1.30;;;15.20;99.90;;;;;;5076718;28;20059;-74
2022/09/28 04:48:50;;;;;;;1.23;1.13;;;15.10;99.90;;;;;;5075586;28;20032;-74
2022/09/28 04:51:16;;;;;;;1.70;1.20;;;15.10;99.90;;;;;;5077078;28;20100;-73
2022/09/28 04:53:42;;;;;;;1.73;1.10;;;15.10;99.90;;;;;;5076926;28;20023;-73
2022/09/28 04:56:11;;;;;;;1.83;1.10;;;15.00;99.90;;;;;;5076767;28;20025;-73
2022/09/28 04:58:38;;;;;;;1.55;1.20;;;15.00;99.90;;;;;;5076399;28;20021;-75
2022/09/28 05:01:07;;;;;;;1.92;1.30;;;14.90;99.90;;;;;;5076678;28;20021;-74
2022/09/28 05:03:33;;;;;;;1.40;1.20;;;14.90;99.90;;;;;;5080146;28;20035;-72
2022/09/28 05:06:00;;;;;;;2.08;1.40;;;14.90;99.90;;;;;;5080979;28;20024;-73
2022/09/28 05:08:26;;;;;;;1.27;1.17;;;14.90;99.90;;;;;;5080705;28;20362;-74
2022/09/28 05:11:04;;;;;;;3.42;1.30;;;14.90;99.90;;;;;;5080737;28;20021;-74
2022/09/28 05:13:31;;;;;;;1.40;1.30;;;14.90;99.90;;;;;;5080424;28;20076;-74
2022/09/28 05:15:58;;;;;;;1.40;1.30;;;14.90;99.90;;;;;;5080937;28;20020;-74
2022/09/28 05:18:24;;;;;;;3.67;1.42;;;14.90;99.90;;;;;;5080172;28;20031;-74
2022/09/28 05:20:50;;;;;;;2.33;1.40;;;14.90;99.90;;;;;;5079228;28;20035;-74
2022/09/28 05:23:16;;;;;;;3.03;1.33;;;14.90;99.90;;;;;;5079035;28;20033;-74
2022/09/28 05:25:44;;;;;;;4.40;1.48;;;14.90;99.90;;;;;;5080383;28;20099;-73
2022/09/28 05:28:10;;;;;;;4.75;1.58;;;14.90;99.90;;;;;;5080225;28;20055;-73
2022/09/28 05:30:36;;;;;;;1.70;1.48;;;15.00;99.90;;;;;;5078807;28;20025;-75
2022/09/28 05:33:03;;;;;;;2.55;1.40;;;15.00;99.90;;;;;;5080104;28;20443;-74
2022/09/28 05:35:29;;;;;;;1.73;1.38;;;15.00;99.90;;;;;;5080155;28;20056;-74
2022/09/28 05:37:56;;;;;;;4.72;1.77;;;15.00;99.90;;;;;;5078785;28;20053;-74
2022/09/28 05:40:22;;;;;;;4.97;1.60;;;15.00;99.90;;;;;;5078864;28;20024;-74
2022/09/28 05:42:48;;;;;;;2.60;2.15;;;14.90;99.90;;;;;;5079871;28;20029;-74
2022/09/28 05:45:14;;;;;;;4.70;1.70;;;15.00;99.90;;;;;;5079838;28;20024;-73
2022/09/28 05:47:42;;;;;;;4.72;1.60;;;15.00;99.90;;;;;;5079665;28;20029;-73
2022/09/28 05:50:14;;;;;;;4.80;1.98;;;15.00;99.90;;;;;;5080104;28;20016;-74
2022/09/28 05:52:41;;;;;;;1.98;1.50;;;15.00;99.90;;;;;;5078412;28;20024;-73
2022/09/28 05:55:07;;;;;;;4.25;1.70;;;15.00;99.90;;;;;;5078603;28;20035;-74
2022/09/28 05:57:33;;;;;;;1.88;1.30;;;15.00;99.90;;;;;;5078092;28;20029;-74
2022/09/28 05:59:59;;;;;;;2.30;1.50;;;15.00;99.90;;;;;;5078246;28;20136;-73
2022/09/28 06:02:25;;;;;;;3.42;1.60;;;15.00;99.90;;;;;;5079682;28;20497;-75
2022/09/28 06:04:51;;;;;;;1.85;1.42;;;15.00;99.90;;;;;;5079941;28;20021;-74
2022/09/28 06:07:17;;;;;;;1.50;1.30;;;15.00;99.90;;;;;;5078269;28;20033;-74
2022/09/28 06:09:43;;;;;;;1.70;1.35;;;15.00;99.90;;;;;;5079460;28;20046;-74
2022/09/28 06:12:08;;;;;;;3.10;1.40;;;15.00;99.90;;;;;;5079405;28;20469;-73
2022/09/28 06:14:34;;;;;;;5.00;1.38;;;15.00;99.90;;;;;;5077430;28;20088;-73
2022/09/28 06:17:00;;;;;;;3.85;1.80;;;15.00;99.90;;;;;;5079290;28;20071;-74
2022/09/28 06:19:26;;;;;;;3.13;1.85;;;15.10;99.90;;;;;;5079473;28;20032;-73
2022/09/28 06:21:52;;;;;;;4.18;1.50;;;15.10;99.90;;;;;;5077942;28;20020;-75
2022/09/28 06:24:17;;;;;;;5.43;2.25;;;15.10;99.90;;;;;;5079263;28;20473;-73
2022/09/28 06:26:43;;;;;;;2.45;1.70;;;15.20;99.90;;;;;;5079339;28;20027;-74
2022/09/28 06:29:09;;;;;;;4.72;1.70;;;15.20;99.90;;;;;;5079086;28;20008;-73
2022/09/28 06:31:35;;;;;;;3.58;1.60;;;15.30;99.90;;;;;;5079021;28;20028;-75
2022/09/28 06:34:01;;;;;;;5.03;1.50;;;15.40;99.90;;;;;;5079132;28;20043;-75
2022/09/28 06:36:30;;;;;;;3.92;1.92;;;15.50;99.90;;;;;;5077562;28;20039;-74
2022/09/28 06:38:56;;;;;;;4.03;1.70;;;15.50;99.90;;;;;;5077667;28;20082;-74
2022/09/28 06:41:22;;;;;;;4.20;1.80;;;15.60;99.90;;;;;;5077700;28;20078;-74
2022/09/28 06:43:48;;;;;;;4.65;1.70;;;15.60;99.90;;;;;;5077378;28;20028;-74
2022/09/28 06:46:14;;;;;;;2.22;1.67;;;15.50;99.90;;;;;;5078704;28;20020;-74
2022/09/28 06:48:40;;;;;;;5.43;1.90;;;15.50;99.90;;;;;;5077516;28;20081;-73
2022/09/28 06:51:06;;;;;;;6.68;2.35;;;15.50;99.90;;;;;;5078742;28;20516;-75
2022/09/28 06:53:32;;;;;;;3.47;1.75;;;15.40;99.90;;;;;;5078924;28;20028;-74
2022/09/28 06:55:58;;;;;;;5.40;1.88;;;15.40;99.90;;;;;;5078644;28;20021;-74
2022/09/28 06:58:27;;;;;;;2.55;1.63;;;15.40;99.90;;;;;;5078671;28;20431;-74
2022/09/28 07:00:58;;;;;;;3.17;1.63;;;15.40;99.90;;;;;;5078620;28;20054;-73
2022/09/28 07:03:24;;;;;;;2.90;1.65;;;15.40;99.90;;;;;;5077083;28;20511;-74
2022/09/28 07:05:52;;;;;;;3.65;1.60;;;15.50;99.90;;;;;;5078326;28;20025;-74
2022/09/28 07:08:23;;;;;;;6.35;2.08;;;15.60;99.90;;;;;;5078639;28;20032;-74
2022/09/28 07:10:55;;;;;;;3.50;1.65;;;15.60;99.90;;;;;;5078365;28;20078;-74
2022/09/28 07:13:22;;;;;;;4.60;1.60;;;15.70;99.90;;;;;;5077188;28;20028;-73
2022/09/28 07:15:52;;;;;;;2.40;1.80;;;15.70;99.90;;;;;;5078320;28;20021;-74
2022/09/28 07:18:18;;;;;;;4.30;1.70;;;15.80;99.90;;;;;;5074658;28;20108;-73
2022/09/28 07:20:44;;;;;;;4.25;1.88;;;15.70;99.90;;;;;;5075200;28;20045;-73
2022/09/28 07:23:09;;;;;;;2.80;1.50;;;15.60;99.90;;;;;;5089647;28;20025;-73
2022/09/28 07:25:39;;;;;;;2.25;1.50;;;15.60;99.90;;;;;;5076174;28;20464;-73
2022/09/28 07:28:05;;;;;;;6.43;1.50;;;15.60;99.90;;;;;;5077797;28;20019;-74
2022/09/28 07:30:33;;;;;;;4.03;1.58;;;15.50;99.90;;;;;;5071771;28;20024;-74
2022/09/28 07:33:00;;;;;;;2.22;1.48;;;15.50;99.90;;;;;;5067989;28;20017;-74
2022/09/28 07:35:26;;;;;;;3.42;1.48;;;15.50;99.90;;;;;;5072519;28;20029;-74
2022/09/28 07:38:03;;;;;;;1.88;1.50;;;15.60;99.90;;;;;;5073606;28;20040;-74
2022/09/28 07:43:19;;;;;;;3.45;1.80;;;15.60;99.90;;;;;;5067059;28;20062;-74
2022/09/28 07:45:46;;;;;;;;;;;15.70;99.90;;;;;;5076511;28;20108;-75
2022/09/28 07:48:15;;;;;;;1.38;1.13;;;15.80;99.90;;;;;;5056246;28;19905;-76
2022/09/28 07:50:51;;;;;;;2.45;1.30;;;15.90;99.90;;;;;;5058565;28;20017;-77
2022/09/28 07:53:22;;;;;;;1.67;1.10;;;15.80;99.90;;;;;;5063926;28;20426;-76
2022/09/28 07:55:53;;;;;;;2.92;1.40;;;15.90;99.90;;;;;;5075165;28;20724;-75
2022/09/28 07:58:19;;;;;;;1.85;1.27;;;15.80;99.90;;;;;;5067835;28;20028;-76
2022/09/28 08:00:48;;;;;;;3.47;1.25;;;15.80;99.90;;;;;;5058071;28;20028;-75
2022/09/28 08:03:18;;;;;;;1.40;1.23;;;15.90;99.90;;;;;;5058188;28;20075;-76
2022/09/28 08:05:45;;;;;;;1.58;1.20;;;16.00;99.90;;;;;;5063962;28;20017;-78
2022/09/28 08:08:12;;;;;;;9.10;1.52;;;16.00;99.90;;;;;;5060084;28;20086;-76
2022/09/28 08:10:38;;;;;;;3.60;1.42;;;16.00;99.90;;;;;;5060671;28;20060;-76
2022/09/28 08:13:04;;;;;;;2.97;1.90;;;16.00;99.90;;;;;;5065992;28;20020;-77
2022/09/28 08:15:37;;;;;;;4.72;2.17;;;16.00;99.90;;;;;;5057434;28;20078;-76
2022/09/28 08:18:06;;;;;;;3.53;1.35;;;16.00;99.90;;;;;;5065343;28;20734;-75
2022/09/28 08:23:17;;;;;;;5.05;1.48;;;16.10;99.90;;;;;;5061821;28;20040;-76
2022/09/28 08:25:51;;;;;;;6.38;1.80;;;16.30;99.90;;;;;;5060707;28;20028;-75
2022/09/28 08:28:17;;;;;;;6.63;1.95;;;16.50;99.90;;;;;;5070319;28;20055;-75
2022/09/28 08:30:44;;;;;;;3.92;1.65;;;16.60;99.90;;;;;;5064746;28;20025;-77
2022/09/28 08:33:14;;;;;;;6.38;1.90;;;16.70;99.90;;;;;;5067861;28;20013;-77
2022/09/28 08:35:40;;;;;;;4.38;1.60;;;16.70;99.90;;;;;;5071287;28;20478;-76
2022/09/28 08:38:07;;;;;;;4.68;1.95;;;16.70;99.90;;;;;;5062693;28;20053;-76
2022/09/28 08:40:43;;;;;;;5.53;1.83;;;16.80;99.90;;;;;;5060895;28;20025;-77
2022/09/28 08:43:53;;;;;;;5.72;1.88;;;16.80;99.90;;;;;;5058596;28;20043;-79
2022/09/28 08:46:23;;;;;;;11.15;2.25;;;16.90;99.90;;;;;;5043280;28;20045;-78
2022/09/28 08:49:00;;;;;;;6.70;1.88;;;16.90;99.90;;;;;;5068436;28;20439;-76
2022/09/28 08:51:48;;;;;;;8.52;2.00;;;17.00;99.90;;;;;;5062854;28;20040;-75
2022/09/28 08:54:25;;;;;;;10.68;2.50;;;17.00;99.90;;;;;;5060638;28;20515;-75
2022/09/28 08:57:04;;;;;;;4.93;1.50;;;17.10;99.90;;;;;;5076444;28;20052;-79
2022/09/28 08:59:58;;;;;;;12.45;2.03;;;17.20;99.90;;;;;;5073563;28;20028;-78
2022/09/28 09:02:38;;;;;;;7.95;1.92;;;17.10;99.90;;;;;;5063093;28;20119;-80
2022/09/28 09:05:13;;;;;;;11.50;2.20;;;17.10;99.90;;;;;;5063496;28;20032;-79
2022/09/28 09:07:53;;;;;;;6.40;2.22;;;17.30;99.90;;;;;;5071965;28;20037;-80
2022/09/28 09:10:37;;;;;;;6.55;2.25;;;17.60;99.90;;;;;;5069321;28;20111;-80
2022/09/28 09:13:46;;;;;;;6.80;2.15;;;17.70;99.90;;;;;;5068325;28;20021;-78
2022/09/28 09:16:31;;;;;;;7.57;2.65;;;17.80;99.90;;;;;;5037224;28;20032;-78
2022/09/28 09:19:13;;;;;;;6.78;2.05;;;17.80;99.90;;;;;;5075324;28;20392;-79
2022/09/28 09:21:42;;;;;;;6.25;2.35;;;17.90;99.90;;;;;;5073427;28;20408;-77
2022/09/28 09:24:26;;;;;;;5.60;2.55;;;18.10;99.90;;;;;;5067936;28;20524;-78
2022/09/28 09:27:31;;;;;;;11.63;3.00;;;18.20;99.90;;;;;;5074132;28;20077;-77
2022/09/28 09:30:05;;;;;;;6.97;2.15;;;18.10;99.90;;;;;;5062818;28;20082;-76
2022/09/28 09:32:52;;;;;;;7.80;1.90;;;17.90;99.90;;;;;;5071527;28;20366;-81
2022/09/28 09:35:40;;;;;;;6.40;2.05;;;17.80;99.90;;;;;;5074566;28;20028;-81
2022/09/28 09:38:18;;;;;;;7.63;2.10;;;17.70;99.90;;;;;;5071700;28;20048;-78
2022/09/28 09:41:11;;;;;;;10.23;2.70;;;17.60;99.90;;;;;;5067031;28;20063;-81
2022/09/28 09:44:09;;;;;;;10.90;2.20;;;17.60;99.90;;;;;;5072577;28;20025;-79
2022/09/28 09:46:42;;;;;;;12.00;2.10;;;17.60;99.90;;;;;;5057486;28;20029;-78
2022/09/28 09:49:23;;;;;;;10.68;2.47;;;17.80;99.90;;;;;;5071703;28;20111;-79
2022/09/28 09:52:04;;;;;;;11.25;3.78;;;18.10;99.90;;;;;;5079179;28;20028;-77
2022/09/28 09:54:38;;;;;;;11.00;2.45;;;18.30;99.90;;;;;;5061017;28;20473;-77
2022/09/28 09:57:16;;;;;;;9.27;2.28;;;18.30;99.90;;;;;;5061078;28;20059;-79
2022/09/28 09:59:43;;;;;;;13.90;2.10;;;18.20;99.90;;;;;;5076807;28;20021;-78
2022/09/28 10:02:24;;;;;;;15.05;3.00;;;18.30;99.90;;;;;;5073576;28;20032;-78
2022/09/28 10:04:58;;;;;;;10.10;2.55;;;18.30;99.90;;;;;;5076507;28;20066;-77
2022/09/28 10:07:40;;;;;;;12.02;2.97;;;18.50;99.90;;;;;;5075129;28;20017;-76
2022/09/28 10:10:14;;;;;;;7.13;2.30;;;18.70;99.90;;;;;;5076625;28;20100;-76
2022/09/28 10:12:40;;;;;;;7.63;2.30;;;18.70;99.90;;;;;;5065775;28;20515;-75
2022/09/28 10:15:07;;;;;;;11.30;2.47;;;18.30;99.90;;;;;;5065392;28;20028;-74
2022/09/28 10:17:34;;;;;;;8.75;3.28;;;17.60;99.90;;;;;;5060868;28;20025;-77
2022/09/28 10:20:00;;;;;;;11.02;2.63;;;17.10;99.90;;;;;;5063218;28;20024;-79
2022/09/28 10:22:30;;;;;;;14.85;3.25;;;16.90;99.90;;;;;;5076274;28;20556;-79
2022/09/28 10:24:57;;;;;;;10.35;3.58;;;16.80;99.90;;;;;;5078815;28;20023;-78
2022/09/28 10:27:34;;;;;;;10.32;3.13;;;16.70;99.90;;;;;;5074068;28;20025;-79
2022/09/28 10:30:09;;;;;;;19.13;3.60;;;16.70;99.90;;;;;;5070629;28;20442;-78
2022/09/28 10:32:46;;;;;;;8.27;2.83;;;16.70;99.90;;;;;;5069136;28;20021;-78
2022/09/28 10:35:17;;;;;;;15.05;4.63;;;16.70;99.90;;;;;;5062496;28;20346;-77
2022/09/28 10:37:51;;;;;;;10.13;3.28;;;16.70;99.90;;;;;;5064016;28;20509;-78
2022/09/28 10:40:46;;;;;;;14.10;3.92;;;16.80;99.90;;;;;;5075130;28;20040;-77
2022/09/28 10:43:35;;;;;;;16.23;4.03;;;16.90;99.90;;;;;;5069677;28;20078;-76
2022/09/28 10:46:12;;;;;;;9.50;2.75;;;16.90;99.90;;;;;;5071776;28;20489;-78
2022/09/28 10:49:05;;;;;;;11.38;3.35;;;16.80;99.90;;;;;;5072996;28;20028;-77
2022/09/28 10:51:50;;;;;;;10.82;2.85;;;16.90;99.90;;;;;;5065966;28;20031;-77
2022/09/28 10:54:22;;;;;;;9.45;3.42;;;16.80;99.90;;;;;;5072305;28;20016;-78
2022/09/28 10:56:49;;;;;;;13.35;3.58;;;16.90;99.90;;;;;;5076537;28;20032;-76
2022/09/28 10:59:30;;;;;;;13.90;3.25;;;17.00;99.90;;;;;;5072340;28;20179;-78
2022/09/28 11:01:57;;;;;;;;;;;16.90;99.90;;;;;;5058407;28;20028;-77
2022/09/28 11:04:27;;;;;;;14.02;3.65;;;16.80;99.90;;;;;;5062676;28;19912;-77
2022/09/28 11:06:59;;;;;;;14.80;4.07;;;16.70;99.90;;;;;;5061570;28;20079;-78
2022/09/28 11:09:31;;;;;;;15.43;4.78;;;16.60;99.90;;;;;;5063171;28;20025;-77
2022/09/28 11:11:58;;;;;;;16.98;3.53;;;16.60;99.90;;;;;;5081985;28;20433;-77
2022/09/28 11:14:34;;;;;;;11.40;2.88;;;16.50;99.90;;;;;;5066940;28;20020;-78
2022/09/28 11:17:29;;;;;;;6.70;2.53;;;16.50;99.90;;;;;;5066409;28;20024;-78
2022/09/28 11:19:57;;;;;;;6.45;2.20;;;16.40;99.90;;;;;;5082249;28;20800;-75
2022/09/28 11:22:48;;;;;;;7.30;2.50;;;16.40;99.90;;;;;;5073095;28;20024;-76
2022/09/28 11:25:16;;;;;;;5.43;2.05;;;16.50;99.90;;;;;;5073352;28;20042;-77
2022/09/28 11:27:51;;;;;;;1.55;1.10;;;16.50;99.90;;;;;;5075021;28;20023;-77
2022/09/28 11:30:44;;;;;;;4.65;2.25;;;16.50;99.90;;;;;;5075707;28;20082;-76
2022/09/28 11:33:18;;;;;;;2.92;1.50;;;16.40;99.90;;;;;;5061352;28;20065;-77
2022/09/28 11:36:10;;;;;;;4.40;1.50;;;16.50;99.90;;;;;;5059142;28;20580;-76
2022/09/28 11:38:52;;;;;;;3.67;1.40;;;16.60;99.90;;;;;;5064525;28;20048;-76
2022/09/28 11:41:45;;;;;;;4.45;1.60;;;16.70;99.90;;;;;;5070546;28;20618;-76
2022/09/28 11:44:37;;;;;;;4.53;1.40;;;16.90;99.90;;;;;;5068944;28;20025;-78
2022/09/28 11:47:40;;;;;;;3.20;1.70;;;17.10;99.90;;;;;;5076834;28;20020;-76
2022/09/28 11:50:21;;;;;;;4.28;1.73;;;17.20;99.90;;;;;;5068500;28;20029;-78
2022/09/28 11:52:54;;;;;;;6.40;1.70;;;17.40;99.90;;;;;;5061738;28;20037;-75
2022/09/28 11:55:37;;;;;;;5.30;1.80;;;17.40;99.90;;;;;;5073566;28;20036;-76
2022/09/28 11:58:23;;;;;;;4.40;2.38;;;17.60;99.90;;;;;;5058725;28;20025;-77
2022/09/28 12:00:55;;;;;;;3.00;1.50;;;17.60;99.90;;;;;;5071681;28;20407;-75
2022/09/28 12:03:28;;;;;;;2.60;1.40;;;17.70;99.90;;;;;;5068389;28;20021;-76
2022/09/28 12:06:06;;;;;;;7.68;1.67;;;17.60;99.90;;;;;;5064081;28;20039;-75
2022/09/28 12:08:40;;;;;;;3.28;1.75;;;17.60;99.90;;;;;;5053322;28;20020;-77
2022/09/28 12:11:25;;;;;;;5.38;1.70;;;17.40;99.90;;;;;;5065955;28;20518;-77
2022/09/28 12:13:56;;;;;;;2.40;1.45;;;17.30;99.90;;;;;;5064769;28;20150;-76
2022/09/28 12:16:25;;;;;;;6.10;1.45;;;17.30;99.90;;;;;;5083326;28;20017;-75
2022/09/28 12:18:57;;;;;;;5.75;1.80;;;17.30;99.90;;;;;;5069974;28;20024;-75
2022/09/28 12:21:35;;;;;;;3.78;1.58;;;17.30;99.90;;;;;;5071184;28;20067;-72
2022/09/28 12:24:35;;;;;;;2.95;1.48;;;17.30;99.90;;;;;;5064784;28;20070;-72
2022/09/28 12:27:06;;;;;;;1.38;1.10;;;17.20;99.90;;;;;;5074626;28;20500;-75
2022/09/28 12:30:01;;;;;;;3.08;1.20;;;17.10;99.90;;;;;;5074217;28;20032;-74
2022/09/28 12:32:47;;;;;;;5.80;1.58;;;16.90;99.90;;;;;;5069928;28;20103;-73
2022/09/28 12:35:37;;;;;;;3.83;1.52;;;16.60;99.90;;;;;;5062475;28;20024;-76
2022/09/28 12:38:24;;;;;;;2.38;1.13;;;16.40;99.90;;;;;;5063312;28;20045;-75
2022/09/28 12:41:12;;;;;;;4.53;1.42;;;16.20;99.90;;;;;;5061002;28;20029;-75
2022/09/28 12:43:39;;;;;;;3.50;1.20;;;16.00;99.90;;;;;;5061383;28;20334;-74
2022/09/28 12:46:23;;;;;;;2.28;1.70;;;16.00;99.90;;;;;;5062946;28;20024;-75
2022/09/28 12:49:17;;;;;;;6.25;1.20;;;16.00;99.90;;;;;;5064072;28;20017;-74
2022/09/28 12:51:46;;;;;;;1.52;1.25;;;16.20;99.90;;;;;;5065048;28;20020;-75
2022/09/28 12:54:39;;;;;;;3.60;1.67;;;16.30;99.90;;;;;;5069093;28;20505;-75
2022/09/28 12:57:24;;;;;;;3.10;1.08;;;16.40;99.90;;;;;;5068775;28;20017;-75
2022/09/28 13:00:07;;;;;;;6.90;1.55;;;16.60;99.90;;;;;;5073993;28;20384;-75
2022/09/28 13:02:57;;;;;;;1.75;1.20;;;16.70;99.90;;;;;;5073987;28;20043;-75
2022/09/28 13:05:31;;;;;;;1.48;1.23;;;16.80;99.90;;;;;;5074791;28;20028;-75
2022/09/28 13:08:08;;;;;;;1.15;1.00;;;17.00;99.90;;;;;;5064319;28;20024;-77
2022/09/28 13:10:51;;;;;;;2.38;1.55;;;17.10;99.90;;;;;;5058498;28;20052;-79
2022/09/28 13:13:26;;;;;;;3.00;1.73;;;17.10;99.90;;;;;;5058884;28;20040;-76
2022/09/28 13:16:16;;;;;;;1.27;1.00;;;17.20;99.90;;;;;;5072619;28;20028;-79
2022/09/28 13:19:05;;;;;;;1.13;0.98;;;17.40;99.90;;;;;;5065968;28;20021;-76
2022/09/28 13:21:38;;;;;;;7.75;1.80;;;17.60;99.90;;;;;;5062566;28;20067;-75
2022/09/28 13:24:07;;;;;;;1.58;1.10;;;17.60;99.90;;;;;;5070047;28;20020;-76
2022/09/28 13:26:39;;;;;;;1.85;1.20;;;17.60;99.90;;;;;;5069989;28;20033;-77